Time;durP1;ratioP1;P1;durP2;ratioP2;P2;SDS_P1;SDS_P2;PMS_P1;PMS_P2;Temp;Humidity;BMP_temperature;BMP_pressure;BME280_temperature;BME280_humidity;BME280_pressure;Samples;Min_cycle;Max_cycle;Signal;HPM_P1;HPM_P2
2022/04/25 00:01:41;;;;;;;4.87;1.80;;;;;;;9.23;100.00;97690.94;5015266;28;20195;-50
2022/04/25 00:04:09;;;;;;;2.47;1.80;;;;;;;9.22;100.00;97702.34;5013978;28;20376;-52
2022/04/25 00:06:36;;;;;;;3.50;1.80;;;;;;;9.23;100.00;97702.19;5014935;28;20191;-51
2022/04/25 00:09:03;;;;;;;2.17;1.70;;;;;;;9.24;100.00;97706.44;5014800;28;20245;-52
2022/04/25 00:11:31;;;;;;;2.03;1.50;;;;;;;9.23;100.00;97710.00;5015076;28;20219;-53
2022/04/25 00:13:58;;;;;;;3.77;2.00;;;;;;;9.22;100.00;97708.38;5010305;28;20564;-51
2022/04/25 00:16:25;;;;;;;3.47;1.83;;;;;;;9.24;100.00;97714.25;5011015;28;20204;-52
2022/04/25 00:18:52;;;;;;;2.50;2.00;;;;;;;9.22;100.00;97704.94;5014650;28;20700;-51
2022/04/25 00:21:18;;;;;;;3.30;2.40;;;;;;;9.21;100.00;97701.56;5014509;28;20625;-51
2022/04/25 00:23:45;;;;;;;4.03;1.60;;;;;;;9.24;100.00;97708.22;5014018;28;20304;-51
2022/04/25 00:26:12;;;;;;;2.63;1.80;;;;;;;9.22;100.00;97711.00;5014486;28;20196;-51
2022/04/25 00:28:40;;;;;;;2.03;1.60;;;;;;;9.25;100.00;97723.69;5014054;28;20257;-54
2022/04/25 00:31:07;;;;;;;2.10;1.53;;;;;;;9.21;100.00;97717.19;5014595;28;20195;-54
2022/04/25 00:33:34;;;;;;;1.70;1.37;;;;;;;9.21;100.00;97716.34;5014389;28;20713;-51
2022/04/25 00:36:01;;;;;;;2.00;1.40;;;;;;;9.16;100.00;97716.84;5014266;28;20540;-52
2022/04/25 00:38:27;;;;;;;2.47;1.50;;;;;;;9.19;100.00;97718.31;5014223;28;20197;-50
2022/04/25 00:40:54;;;;;;;1.83;1.43;;;;;;;9.15;100.00;97715.22;5014048;28;20230;-49
2022/04/25 00:43:21;;;;;;;3.83;1.90;;;;;;;9.10;100.00;97714.91;5014509;28;20215;-49
2022/04/25 00:45:49;;;;;;;4.30;1.60;;;;;;;9.13;100.00;97714.56;5014604;28;20195;-49
2022/04/25 00:48:16;;;;;;;1.20;1.10;;;;;;;9.06;100.00;97717.00;5014138;28;20283;-49
2022/04/25 00:50:45;;;;;;;2.07;1.40;;;;;;;9.04;100.00;97715.56;5013793;28;20192;-51
2022/04/25 00:53:12;;;;;;;4.10;1.40;;;;;;;8.98;100.00;97714.44;5013560;28;20312;-49
2022/04/25 00:55:38;;;;;;;2.63;1.63;;;;;;;8.96;100.00;97711.19;5014083;28;20271;-49
2022/04/25 00:58:05;;;;;;;1.73;1.43;;;;;;;8.98;100.00;97712.63;5013727;28;20187;-48
2022/04/25 01:00:36;;;;;;;2.57;1.73;;;;;;;8.97;100.00;97715.41;5013644;28;20559;-51
2022/04/25 01:03:05;;;;;;;3.57;1.70;;;;;;;8.96;100.00;97709.38;5013811;28;20218;-49
2022/04/25 01:05:32;;;;;;;3.00;1.70;;;;;;;8.93;100.00;97716.72;5013523;28;20191;-49
2022/04/25 01:08:00;;;;;;;2.40;1.70;;;;;;;8.89;100.00;97708.41;5014038;28;20203;-49
2022/04/25 01:10:27;;;;;;;2.20;1.60;;;;;;;8.83;100.00;97706.44;5013513;28;20230;-49
2022/04/25 01:12:54;;;;;;;3.57;1.43;;;;;;;8.85;100.00;97700.13;5013747;28;20276;-52
2022/04/25 01:15:23;;;;;;;3.57;1.60;;;;;;;8.82;100.00;97695.22;5009127;28;20211;-49
2022/04/25 01:17:50;;;;;;;4.50;1.77;;;;;;;8.72;100.00;97699.78;5010213;28;20202;-48
2022/04/25 01:20:18;;;;;;;2.27;1.60;;;;;;;8.64;100.00;97705.78;5013150;28;20599;-49
2022/04/25 01:22:50;;;;;;;4.27;2.10;;;;;;;8.47;100.00;97702.31;5013462;28;20191;-49
2022/04/25 01:28:04;;;;;;;4.00;2.60;;;;;;;8.18;100.00;97700.16;5013292;28;20199;-49
2022/04/25 01:30:31;;;;;;;4.73;3.07;;;;;;;8.13;100.00;97701.44;5013008;28;20210;-48
2022/04/25 01:32:58;;;;;;;5.97;3.30;;;;;;;8.04;100.00;97704.97;5013338;28;20694;-49
2022/04/25 01:35:25;;;;;;;3.97;2.67;;;;;;;7.96;100.00;97705.75;5013039;28;20202;-49
2022/04/25 01:37:52;;;;;;;7.90;3.43;;;;;;;7.90;100.00;97710.78;5013460;28;20201;-49
2022/04/25 01:40:21;;;;;;;4.00;3.20;;;;;;;7.82;100.00;97707.16;5012465;28;20292;-50
2022/04/25 01:42:47;;;;;;;3.73;2.47;;;;;;;7.68;100.00;97705.97;5012697;28;20199;-49
2022/04/25 01:45:14;;;;;;;4.10;2.63;;;;;;;7.61;100.00;97706.72;5013286;28;20194;-49
2022/04/25 01:47:41;;;;;;;3.10;2.70;;;;;;;7.49;100.00;97712.19;5013215;28;20197;-49
2022/04/25 01:50:09;;;;;;;5.73;2.70;;;;;;;7.39;100.00;97711.50;5012719;28;20190;-50
2022/04/25 01:52:35;;;;;;;3.43;2.53;;;;;;;7.28;100.00;97707.38;5013074;28;20256;-49
2022/04/25 01:55:04;;;;;;;2.67;2.10;;;;;;;7.19;100.00;97708.28;5012277;28;20213;-49
2022/04/25 01:57:33;;;;;;;6.23;2.27;;;;;;;7.11;100.00;97711.63;5012819;28;20203;-49
2022/04/25 02:00:00;;;;;;;4.10;2.67;;;;;;;7.04;100.00;97711.41;5012602;28;20243;-49
2022/04/25 02:02:27;;;;;;;3.80;2.83;;;;;;;7.02;100.00;97717.72;5012777;28;20196;-50
2022/04/25 02:04:54;;;;;;;5.03;3.00;;;;;;;7.00;100.00;97710.09;5012873;28;20270;-49
2022/04/25 02:07:22;;;;;;;4.67;3.07;;;;;;;6.94;100.00;97715.88;5012653;28;20220;-50
2022/04/25 02:09:49;;;;;;;6.40;3.27;;;;;;;6.93;100.00;97716.84;5011735;28;20192;-49
2022/04/25 02:12:15;;;;;;;9.17;4.80;;;;;;;7.01;100.00;97719.50;5012481;28;20568;-49
2022/04/25 02:14:45;;;;;;;6.53;4.30;;;;;;;7.14;100.00;97723.47;5012611;28;20212;-50
2022/04/25 02:17:13;;;;;;;5.80;4.40;;;;;;;7.26;100.00;97724.88;5018780;28;20193;-49
2022/04/25 02:19:40;;;;;;;6.03;4.23;;;;;;;7.39;100.00;97725.28;5012070;28;20214;-49
2022/04/25 02:22:08;;;;;;;7.80;4.27;;;;;;;7.47;100.00;97724.50;5010834;28;20200;-51
2022/04/25 02:24:35;;;;;;;8.73;5.03;;;;;;;7.53;100.00;97730.88;4994646;28;20221;-49
2022/04/25 02:27:03;;;;;;;6.50;4.00;;;;;;;7.64;100.00;97725.44;5012982;28;20269;-49
2022/04/25 02:29:30;;;;;;;6.90;4.70;;;;;;;7.66;100.00;97728.69;5012804;28;20266;-49
2022/04/25 02:31:59;;;;;;;8.17;4.57;;;;;;;7.68;100.00;97725.94;5012797;28;20256;-49
2022/04/25 02:34:26;;;;;;;8.40;4.93;;;;;;;7.74;100.00;97733.09;4995014;28;20217;-49
2022/04/25 02:36:55;;;;;;;7.47;4.57;;;;;;;7.80;100.00;97734.28;5012693;28;20597;-49
2022/04/25 02:39:40;;;;;;;6.83;4.43;;;;;;;7.84;100.00;97738.19;5012874;28;20288;-49
2022/04/25 02:42:08;;;;;;;7.03;5.10;;;;;;;7.90;100.00;97741.94;5013016;28;20197;-49
2022/04/25 02:44:34;;;;;;;11.93;7.47;;;;;;;7.92;100.00;97738.25;5012755;28;20703;-50
2022/04/25 02:47:03;;;;;;;11.63;7.13;;;;;;;7.96;100.00;97738.72;5012674;28;20188;-50
2022/04/25 02:49:30;;;;;;;9.93;6.80;;;;;;;8.00;100.00;97739.22;5015836;28;20207;-49
2022/04/25 02:51:57;;;;;;;9.53;6.40;;;;;;;8.00;100.00;97742.66;5016752;28;20262;-50
2022/04/25 02:54:23;;;;;;;7.63;5.40;;;;;;;8.04;100.00;97749.16;5003714;28;20232;-50
2022/04/25 02:56:50;;;;;;;8.70;5.20;;;;;;;8.09;100.00;97746.06;5021775;28;20661;-50
2022/04/25 02:59:17;;;;;;;6.50;4.80;;;;;;;8.13;100.00;97744.78;5021115;28;20197;-50
2022/04/25 03:01:44;;;;;;;6.27;4.73;;;;;;;8.15;100.00;97747.25;5022409;28;20193;-50
2022/04/25 03:04:12;;;;;;;6.77;4.90;;;;;;;8.19;100.00;97745.97;5019033;28;20209;-50
2022/04/25 03:06:39;;;;;;;6.77;4.80;;;;;;;8.19;100.00;97743.38;5019903;28;20206;-50
2022/04/25 03:09:06;;;;;;;6.07;4.57;;;;;;;8.27;100.00;97748.59;5016273;28;20194;-50
2022/04/25 03:11:34;;;;;;;7.57;5.20;;;;;;;8.22;100.00;97751.66;5021785;28;20182;-50
2022/04/25 03:14:01;;;;;;;7.93;5.73;;;;;;;8.23;100.00;97748.09;5018501;28;20217;-50
2022/04/25 03:16:29;;;;;;;10.37;5.27;;;;;;;8.23;100.00;97750.69;5019807;28;20633;-50
2022/04/25 03:18:58;;;;;;;8.63;5.70;;;;;;;8.27;100.00;97739.00;5001648;28;20721;-50
2022/04/25 03:21:26;;;;;;;7.67;5.60;;;;;;;8.28;100.00;97748.44;5019011;28;20247;-50
2022/04/25 03:23:53;;;;;;;8.00;6.00;;;;;;;8.28;100.00;97745.81;5018680;28;20697;-50
2022/04/25 03:26:20;;;;;;;9.97;5.93;;;;;;;8.27;100.00;97744.19;5019796;28;20615;-50
2022/04/25 03:28:47;;;;;;;8.00;5.83;;;;;;;8.29;100.00;97744.06;5017632;28;20656;-50
2022/04/25 03:31:14;;;;;;;10.07;6.50;;;;;;;8.27;100.00;97744.19;5020858;28;20183;-50
2022/04/25 03:33:40;;;;;;;16.40;9.90;;;;;;;8.27;100.00;97741.59;5022929;28;20263;-50
2022/04/25 03:36:07;;;;;;;18.50;12.70;;;;;;;8.29;100.00;97744.06;5028733;28;20696;-50
2022/04/25 03:38:35;;;;;;;14.30;11.57;;;;;;;8.26;100.00;97744.38;5032276;28;20198;-50
2022/04/25 03:41:02;;;;;;;12.60;10.10;;;;;;;8.27;100.00;97748.59;5032152;28;20204;-49
2022/04/25 03:43:31;;;;;;;15.87;11.20;;;;;;;8.27;100.00;97746.00;5032121;28;20209;-50
2022/04/25 03:45:58;;;;;;;21.97;13.10;;;;;;;8.26;100.00;97745.16;5032181;28;20640;-50
2022/04/25 03:48:25;;;;;;;21.43;16.40;;;;;;;8.29;100.00;97746.66;5032011;28;20204;-50
2022/04/25 03:50:52;;;;;;;25.10;18.73;;;;;;;8.25;100.00;97745.34;5032218;28;20181;-50
2022/04/25 03:53:19;;;;;;;21.97;15.37;;;;;;;8.25;100.00;97743.53;5031989;28;20712;-50
2022/04/25 03:58:31;;;;;;;16.33;11.13;;;;;;;8.31;100.00;97747.31;5031919;28;20226;-49
2022/04/25 04:00:58;;;;;;;15.30;11.43;;;;;;;8.28;100.00;97753.63;5032146;28;20306;-49
2022/04/25 04:03:44;;;;;;;13.33;10.23;;;;;;;8.25;100.00;97748.75;5032237;28;20216;-52
2022/04/25 04:06:12;;;;;;;14.67;10.87;;;;;;;8.26;100.00;97744.38;5032144;28;20226;-51
2022/04/25 04:08:39;;;;;;;14.83;10.40;;;;;;;8.26;100.00;97742.56;5031875;28;20192;-50
2022/04/25 04:11:07;;;;;;;14.07;10.63;;;;;;;8.22;100.00;97740.47;5032096;28;20588;-49
2022/04/25 04:13:34;;;;;;;14.03;10.83;;;;;;;8.21;100.00;97741.44;5031906;28;20562;-50
2022/04/25 04:16:03;;;;;;;15.70;11.57;;;;;;;8.24;100.00;97746.31;5031916;28;20185;-51
2022/04/25 04:18:29;;;;;;;16.37;10.60;;;;;;;8.24;100.00;97744.50;5031792;28;20186;-49
2022/04/25 04:20:56;;;;;;;14.47;9.83;;;;;;;8.22;100.00;97749.06;5031764;28;20216;-50
2022/04/25 04:23:23;;;;;;;18.90;13.40;;;;;;;8.20;100.00;97756.19;5031863;28;20210;-49
2022/04/25 04:25:50;;;;;;;17.90;11.60;;;;;;;8.18;100.00;97763.34;5031889;28;20181;-50
2022/04/25 04:28:18;;;;;;;17.53;13.43;;;;;;;8.15;100.00;97760.25;5031753;28;20236;-50
2022/04/25 04:30:46;;;;;;;18.13;11.83;;;;;;;8.14;100.00;97769.81;5031755;28;20186;-49
2022/04/25 04:33:13;;;;;;;16.67;11.60;;;;;;;8.13;100.00;97766.41;5033616;28;20205;-50
2022/04/25 04:38:24;;;;;;;14.20;10.80;;;;;;;8.17;100.00;97776.50;5035111;28;20568;-53
2022/04/25 04:40:51;;;;;;;17.75;13.18;;;;;;;8.17;100.00;97774.72;5034479;28;20449;-50
2022/04/25 04:43:19;;;;;;;16.70;11.20;;;;;;;8.19;100.00;97772.75;5017635;28;20262;-49
2022/04/25 04:45:46;;;;;;;17.03;11.87;;;;;;;8.15;100.00;97779.25;5035728;28;20568;-49
2022/04/25 04:48:13;;;;;;;17.67;11.73;;;;;;;8.16;100.00;97772.28;5035065;28;20247;-50
2022/04/25 04:50:40;;;;;;;16.33;11.30;;;;;;;8.19;100.00;97775.38;5035054;28;20190;-50
2022/04/25 04:53:08;;;;;;;17.77;11.90;;;;;;;8.21;100.00;97772.63;5035021;28;20224;-49
2022/04/25 04:55:36;;;;;;;19.20;12.77;;;;;;;8.23;100.00;97770.69;5035227;28;20245;-50
2022/04/25 04:58:03;;;;;;;16.87;11.87;;;;;;;8.22;100.00;97767.25;5035064;28;20189;-49
2022/04/25 05:00:33;;;;;;;15.43;12.00;;;;;;;8.24;100.00;97774.91;5034847;28;20219;-52
2022/04/25 05:03:00;;;;;;;15.70;11.53;;;;;;;8.31;100.00;97781.13;5034819;28;20190;-50
2022/04/25 05:05:27;;;;;;;18.17;12.60;;;;;;;8.34;100.00;97772.16;5035031;28;20527;-50
2022/04/25 05:07:54;;;;;;;20.90;13.10;;;;;;;8.32;100.00;97774.13;5034848;28;20201;-50
2022/04/25 05:10:21;;;;;;;19.60;13.40;;;;;;;8.31;100.00;97768.13;5034611;28;20191;-50
2022/04/25 05:12:50;;;;;;;18.83;13.63;;;;;;;8.31;100.00;97770.72;5034685;28;20190;-50
2022/04/25 05:15:17;;;;;;;19.93;13.43;;;;;;;8.32;100.00;97777.53;5034590;28;20269;-50
2022/04/25 05:17:48;;;;;;;24.30;15.23;;;;;;;8.35;100.00;97774.63;5034682;28;20592;-49
2022/04/25 05:20:15;;;;;;;18.70;13.83;;;;;;;8.41;100.00;97776.59;5034244;28;20244;-50
2022/04/25 05:22:44;;;;;;;18.60;13.43;;;;;;;8.48;100.00;97791.56;5034543;28;20581;-50
2022/04/25 05:25:14;;;;;;;20.07;14.10;;;;;;;8.49;100.00;97780.19;5034586;28;20217;-50
2022/04/25 05:27:41;;;;;;;23.03;15.77;;;;;;;8.53;100.00;97797.13;5012553;28;20186;-50
2022/04/25 05:30:09;;;;;;;23.83;17.90;;;;;;;8.57;100.00;97794.06;5014313;28;20290;-50
2022/04/25 05:32:46;;;;;;;22.07;15.27;;;;;;;8.62;100.00;97798.78;5014317;28;20197;-50
2022/04/25 05:35:14;;;;;;;20.60;14.43;;;;;;;8.63;100.00;97792.59;5014371;28;20198;-50
2022/04/25 05:37:40;;;;;;;21.10;14.83;;;;;;;8.68;100.00;97794.75;5014386;28;20195;-50
2022/04/25 05:40:08;;;;;;;23.47;14.83;;;;;;;8.74;100.00;97795.88;5014027;28;20669;-51
2022/04/25 05:42:35;;;;;;;24.23;18.43;;;;;;;8.80;100.00;97796.06;5017217;28;20217;-50
2022/04/25 05:45:04;;;;;;;25.00;18.53;;;;;;;8.88;100.00;97794.44;5017909;28;20242;-53
2022/04/25 05:47:32;;;;;;;22.73;17.20;;;;;;;8.95;100.00;97798.03;5013986;28;20203;-49
2022/04/25 05:52:45;;;;;;;22.83;16.70;;;;;;;9.12;100.00;97806.69;5013748;28;20321;-50
2022/04/25 05:55:12;;;;;;;25.40;17.90;;;;;;;9.19;100.00;97810.25;5014041;28;20216;-51
2022/04/25 05:57:40;;;;;;;21.17;16.03;;;;;;;9.19;100.00;97807.66;5006084;28;20187;-50
2022/04/25 06:00:08;;;;;;;23.07;16.33;;;;;;;9.23;100.00;97808.13;5013843;28;20756;-50
2022/04/25 06:02:41;;;;;;;24.15;18.60;;;;;;;9.34;100.00;97807.81;5013065;28;20401;-49
2022/04/25 06:05:11;;;;;;;27.53;17.13;;;;;;;9.39;100.00;97817.75;5013719;28;20238;-49
2022/04/25 06:07:40;;;;;;;24.07;16.47;;;;;;;9.40;100.00;97820.19;5014073;28;20191;-49
2022/04/25 06:10:08;;;;;;;22.67;15.97;;;;;;;9.28;100.00;97813.66;5013509;28;20203;-49
2022/04/25 06:12:39;;;;;;;20.63;15.70;;;;;;;9.45;100.00;97820.50;5013670;28;20233;-49
2022/04/25 06:15:07;;;;;;;21.40;15.47;;;;;;;9.64;100.00;97815.94;5013700;28;20218;-50
2022/04/25 06:17:34;;;;;;;19.57;14.50;;;;;;;9.84;100.00;97832.03;5013564;28;20255;-50
2022/04/25 06:20:01;;;;;;;21.17;16.20;;;;;;;9.97;100.00;97825.50;5013401;28;20200;-49
2022/04/25 06:22:29;;;;;;;20.40;14.87;;;;;;;10.27;100.00;97823.94;5021623;28;20266;-49
2022/04/25 06:24:56;;;;;;;18.77;14.20;;;;;;;10.55;100.00;97833.16;5013452;28;20614;-49
2022/04/25 06:27:23;;;;;;;18.37;14.47;;;;;;;10.83;100.00;97832.66;5013365;28;20192;-49
2022/04/25 06:29:49;;;;;;;18.67;13.77;;;;;;;11.03;100.00;97828.63;5013252;28;20199;-50
2022/04/25 06:32:16;;;;;;;19.33;14.60;;;;;;;11.23;100.00;97828.19;5013063;28;20643;-49
2022/04/25 06:34:43;;;;;;;20.17;14.00;;;;;;;11.37;98.42;97826.59;5013189;28;20282;-49
2022/04/25 06:37:10;;;;;;;18.73;13.77;;;;;;;11.73;98.40;97830.38;5013313;28;20215;-50
2022/04/25 06:39:38;;;;;;;19.00;14.90;;;;;;;12.03;94.05;97827.81;5012777;28;20435;-50
2022/04/25 06:42:05;;;;;;;17.57;14.23;;;;;;;12.29;93.48;97823.94;5013174;28;20239;-50
2022/04/25 06:44:33;;;;;;;18.53;14.53;;;;;;;12.50;92.93;97824.00;5012964;28;20607;-50
2022/04/25 06:46:59;;;;;;;20.27;14.07;;;;;;;12.43;91.10;97825.75;5013025;28;20612;-51
2022/04/25 06:49:27;;;;;;;17.87;14.37;;;;;;;12.58;91.23;97830.94;5013008;28;20565;-50
2022/04/25 06:51:57;;;;;;;18.53;14.97;;;;;;;12.53;90.54;97828.88;5013182;28;20190;-49
2022/04/25 06:54:25;;;;;;;18.57;14.47;;;;;;;12.59;90.74;97826.53;5012837;28;20216;-50
2022/04/25 06:56:54;;;;;;;19.03;13.93;;;;;;;12.74;88.37;97831.72;5012658;28;20246;-50
2022/04/25 06:59:20;;;;;;;17.90;14.40;;;;;;;12.50;86.44;97839.72;5012447;28;20223;-50
2022/04/25 07:01:47;;;;;;;17.67;13.77;;;;;;;12.57;86.15;97847.63;5012754;28;20216;-49
2022/04/25 07:04:14;;;;;;;16.53;13.47;;;;;;;12.47;83.82;97855.78;5012771;28;20303;-52
2022/04/25 07:06:41;;;;;;;17.40;12.20;;;;;;;12.18;87.84;97859.22;5020979;28;20216;-52
2022/04/25 07:09:12;;;;;;;15.70;10.83;;;;;;;12.05;91.60;97862.47;5012744;28;20664;-52
2022/04/25 07:11:41;;;;;;;14.10;10.67;;;;;;;12.23;90.33;97859.47;5013159;28;20204;-50
2022/04/25 07:14:09;;;;;;;12.43;10.03;;;;;;;12.34;90.74;97864.25;5012719;28;20232;-50
2022/04/25 07:16:36;;;;;;;12.67;9.73;;;;;;;12.02;93.27;97860.19;5012816;28;20180;-49
2022/04/25 07:19:02;;;;;;;11.03;9.13;;;;;;;12.49;92.09;97872.13;5012395;28;20184;-49
2022/04/25 07:29:47;;;;;;;13.20;9.60;;;;;;;12.97;79.88;97866.44;5012462;28;20198;-49
2022/04/25 07:32:14;;;;;;;14.20;9.53;;;;;;;12.95;81.44;97870.22;5012815;28;20185;-49
2022/04/25 07:34:42;;;;;;;11.73;8.87;;;;;;;12.50;82.75;97871.13;5012684;28;20251;-49
2022/04/25 07:37:09;;;;;;;14.77;10.63;;;;;;;11.93;86.81;97865.47;5012555;28;20192;-50
2022/04/25 07:39:36;;;;;;;13.10;10.43;;;;;;;11.53;87.09;97864.88;5009886;28;20542;-52
2022/04/25 07:42:04;;;;;;;15.37;11.07;;;;;;;11.40;89.19;97869.88;5023641;28;20236;-50
2022/04/25 07:44:31;;;;;;;14.70;11.10;;;;;;;11.58;87.36;97869.56;5023103;28;20244;-53
2022/04/25 07:46:59;;;;;;;17.63;11.77;;;;;;;11.27;88.75;97873.88;5032117;28;20190;-50
2022/04/25 07:49:26;;;;;;;16.23;11.43;;;;;;;11.30;89.73;97873.53;5031746;28;20195;-50
2022/04/25 07:51:54;;;;;;;24.93;16.37;;;;;;;10.90;93.21;97878.00;5032097;28;20679;-50
2022/04/25 07:54:20;;;;;;;21.43;17.90;;;;;;;10.74;96.75;97881.50;5032022;28;20223;-52
2022/04/25 07:57:06;;;;;;;14.60;10.33;;;;;;;10.70;96.56;97882.84;5032508;28;20195;-52
2022/04/25 07:59:51;;;;;;;16.17;10.00;;;;;;;10.52;97.81;97891.72;5031918;28;20194;-50
2022/04/25 08:02:20;;;;;;;13.33;10.03;;;;;;;10.43;98.96;97888.31;5032111;28;20262;-51
2022/04/25 08:04:48;;;;;;;13.93;10.23;;;;;;;10.31;100.00;97903.47;5032147;28;20211;-50
2022/04/25 08:07:15;;;;;;;14.50;10.57;;;;;;;10.27;100.00;97910.00;5032658;28;20610;-51
2022/04/25 08:09:42;;;;;;;13.73;10.37;;;;;;;10.15;100.00;97914.75;5035720;28;20187;-53
2022/04/25 08:20:25;;;;;;;17.33;12.73;;;;;;;9.81;100.00;97946.25;5035600;28;20205;-52
2022/04/25 08:22:52;;;;;;;20.47;14.73;;;;;;;9.70;100.00;97942.97;5035563;28;20213;-50
2022/04/25 08:25:19;;;;;;;16.50;11.90;;;;;;;9.58;100.00;97945.06;5035734;28;20222;-50
2022/04/25 08:27:46;;;;;;;12.20;9.73;;;;;;;9.48;100.00;97938.38;5035644;28;20213;-52
2022/04/25 08:30:13;;;;;;;7.80;6.50;;;;;;;9.50;100.00;97941.66;5035337;28;20189;-50
2022/04/25 08:32:41;;;;;;;8.07;6.33;;;;;;;9.52;100.00;97945.75;5017926;28;20245;-52
2022/04/25 08:35:09;;;;;;;10.03;6.63;;;;;;;9.64;100.00;97955.81;5035332;28;20211;-49
2022/04/25 08:37:36;;;;;;;15.47;9.77;;;;;;;9.68;100.00;97951.91;5035453;28;20269;-50
2022/04/25 08:40:04;;;;;;;16.20;10.13;;;;;;;9.82;100.00;97959.09;5035100;28;20607;-53
2022/04/25 08:42:31;;;;;;;13.07;8.27;;;;;;;9.92;100.00;97955.53;5035374;28;20209;-51
2022/04/25 08:45:02;;;;;;;9.20;6.70;;;;;;;10.08;100.00;97954.69;5017529;28;20209;-52
2022/04/25 08:47:33;;;;;;;8.93;6.83;;;;;;;10.27;100.00;97958.75;5035308;28;20180;-50
2022/04/25 08:50:01;;;;;;;7.93;5.70;;;;;;;10.53;100.00;97948.13;5035290;28;20513;-50
2022/04/25 08:52:30;;;;;;;6.73;4.93;;;;;;;10.73;100.00;97945.94;5009887;28;20654;-50
2022/04/25 08:54:58;;;;;;;6.37;4.93;;;;;;;10.98;100.00;97937.22;5002802;28;20590;-51
2022/04/25 08:57:28;;;;;;;5.13;4.63;;;;;;;11.22;97.06;97931.84;5022495;28;20246;-53
2022/04/25 08:59:57;;;;;;;5.73;4.60;;;;;;;11.53;96.14;97932.81;5022024;28;20272;-50
2022/04/25 09:02:25;;;;;;;8.30;4.47;;;;;;;11.82;92.43;97936.50;5023486;28;20698;-50
2022/04/25 09:04:51;;;;;;;4.67;4.07;;;;;;;11.96;92.12;97935.72;5026424;28;20202;-51
2022/04/25 09:07:20;;;;;;;6.47;4.00;;;;;;;12.13;90.61;97946.09;5034596;28;20333;-52
2022/04/25 09:09:47;;;;;;;6.90;3.80;;;;;;;12.17;88.33;97944.75;5034176;28;20187;-52
2022/04/25 09:12:14;;;;;;;9.17;6.07;;;;;;;12.23;86.99;97943.22;5034354;28;20565;-50
2022/04/25 09:14:42;;;;;;;4.10;3.70;;;;;;;12.22;85.49;97941.59;5034174;28;20209;-50
2022/04/25 09:17:09;;;;;;;5.03;3.13;;;;;;;12.17;87.05;97949.97;5034322;28;20655;-53
2022/04/25 09:19:37;;;;;;;3.70;3.10;;;;;;;12.05;83.06;97946.16;5030549;28;20189;-49
2022/04/25 09:22:06;;;;;;;3.67;3.00;;;;;;;12.09;83.85;97943.03;5023165;28;20194;-49
2022/04/25 09:24:36;;;;;;;8.63;2.93;;;;;;;12.13;83.80;97940.84;5023552;28;20254;-49
2022/04/25 09:27:18;;;;;;;3.23;2.93;;;;;;;12.16;82.44;97937.88;5020351;28;20223;-49
2022/04/25 09:29:46;;;;;;;3.07;2.70;;;;;;;12.24;83.30;97947.44;5020548;28;20204;-49
2022/04/25 09:32:14;;;;;;;4.27;3.10;;;;;;;11.99;80.23;97942.44;5023262;28;20189;-50
2022/04/25 09:37:44;;;;;;;4.07;3.13;;;;;;;12.49;80.71;97944.59;5022003;28;20204;-49
2022/04/25 09:40:18;;;;;;;3.10;2.70;;;;;;;12.20;80.44;97948.78;5017610;28;20191;-49
2022/04/25 09:42:46;;;;;;;4.37;2.77;;;;;;;12.50;80.97;97957.50;5020283;28;20242;-49
2022/04/25 09:45:14;;;;;;;3.07;2.60;;;;;;;12.61;80.94;97952.81;5022880;28;20216;-49
2022/04/25 09:47:42;;;;;;;4.13;2.77;;;;;;;12.60;79.39;97959.06;5024449;28;20180;-49
2022/04/25 09:50:11;;;;;;;3.30;2.70;;;;;;;12.72;82.10;97962.03;5020013;28;20185;-49
2022/04/25 09:52:53;;;;;;;4.83;2.77;;;;;;;12.68;81.93;97956.34;5018754;28;20194;-49
2022/04/25 09:55:23;;;;;;;5.73;2.97;;;;;;;12.82;83.30;97952.09;5017064;28;20193;-49
2022/04/25 09:57:50;;;;;;;3.77;2.70;;;;;;;13.08;80.82;97956.03;5011648;28;20279;-49
2022/04/25 10:00:30;;;;;;;3.00;2.70;;;;;;;13.35;81.20;97956.31;5013613;28;20275;-49
2022/04/25 10:02:58;;;;;;;3.00;2.47;;;;;;;13.61;78.85;97955.81;5018306;28;20212;-50
2022/04/25 10:05:36;;;;;;;3.37;2.00;;;;;;;13.67;73.11;97962.94;5005194;28;20185;-49
2022/04/25 10:08:05;;;;;;;2.73;2.43;;;;;;;13.81;73.69;97974.38;5016487;28;20194;-50
2022/04/25 10:10:34;;;;;;;3.30;2.30;;;;;;;14.02;74.74;97973.53;5020320;28;20197;-51
2022/04/25 10:13:01;;;;;;;3.27;2.73;;;;;;;14.26;75.48;97975.97;5017697;28;20190;-49
2022/04/25 10:15:28;;;;;;;3.47;3.17;;;;;;;14.75;71.58;97984.78;5019956;28;20203;-49
2022/04/25 10:17:56;;;;;;;2.93;2.23;;;;;;;14.85;70.91;97993.09;5016119;28;20196;-49
2022/04/25 10:20:24;;;;;;;2.50;2.30;;;;;;;14.77;72.90;97988.03;5001091;28;20199;-49
2022/04/25 10:22:50;;;;;;;3.87;2.47;;;;;;;14.79;76.82;97988.66;4998312;28;20214;-48
2022/04/25 10:25:17;;;;;;;4.20;3.00;;;;;;;15.03;70.94;97989.16;5022367;28;20195;-49
2022/04/25 10:27:47;;;;;;;2.93;2.63;;;;;;;15.12;67.19;97985.34;5023532;28;20189;-51
2022/04/25 10:30:17;;;;;;;4.17;2.60;;;;;;;15.12;70.54;97990.59;5021795;28;20188;-49
2022/04/25 10:32:44;;;;;;;3.30;2.47;;;;;;;15.26;70.87;97995.91;5023844;28;20179;-50
2022/04/25 10:35:15;;;;;;;5.47;3.10;;;;;;;15.18;70.75;98000.34;5022033;28;20569;-48
2022/04/25 10:37:44;;;;;;;3.10;2.80;;;;;;;15.25;68.52;98003.00;5012776;28;20192;-49
2022/04/25 10:40:12;;;;;;;4.13;3.13;;;;;;;15.02;64.73;98003.28;5023382;28;20188;-48
2022/04/25 10:46:00;;;;;;;5.67;3.10;;;;;;;14.60;64.51;98011.13;5018683;28;20199;-48
2022/04/25 10:48:27;;;;;;;5.00;3.87;;;;;;;14.08;69.88;98011.34;5018248;28;20195;-48
2022/04/25 10:51:10;;;;;;;4.43;3.67;;;;;;;14.04;70.08;98012.72;5020865;28;20209;-48
2022/04/25 10:53:57;;;;;;;6.07;4.13;;;;;;;14.15;73.75;98017.47;5016522;28;20214;-49
2022/04/25 10:56:26;;;;;;;5.07;4.07;;;;;;;14.00;76.46;98014.09;5016559;28;20314;-49
2022/04/25 10:59:25;;;;;;;4.10;3.70;;;;;;;14.11;70.54;98016.22;5017504;28;20190;-48
2022/04/25 11:01:53;;;;;;;4.73;4.23;;;;;;;13.60;76.79;98022.38;5012598;28;20186;-49
2022/04/25 11:04:22;;;;;;;5.03;4.47;;;;;;;13.65;76.61;98030.50;5012337;28;20209;-48
2022/04/25 11:07:09;;;;;;;4.77;4.27;;;;;;;13.26;76.47;98021.16;5012405;28;20684;-48
2022/04/25 11:09:40;;;;;;;5.07;4.43;;;;;;;13.46;73.68;98020.59;5011947;28;20192;-49
2022/04/25 11:12:10;;;;;;;4.77;4.27;;;;;;;13.39;77.39;98021.31;5012338;28;20193;-49
2022/04/25 11:14:55;;;;;;;4.10;3.60;;;;;;;13.49;76.89;98026.28;5012424;28;20214;-50
2022/04/25 11:17:23;;;;;;;4.57;3.50;;;;;;;13.64;79.68;98025.44;5012176;28;20239;-48
2022/04/25 11:19:54;;;;;;;5.57;4.20;;;;;;;13.84;75.30;98030.88;5017038;28;20197;-48
2022/04/25 11:22:53;;;;;;;4.03;3.47;;;;;;;13.90;72.65;98034.59;5014307;28;20400;-49
2022/04/25 11:25:42;;;;;;;3.10;2.80;;;;;;;14.26;71.09;98031.09;5000694;28;20674;-49
2022/04/25 11:28:13;;;;;;;4.23;3.30;;;;;;;14.40;70.87;98034.63;5012066;28;20272;-48
2022/04/25 11:30:42;;;;;;;3.47;3.17;;;;;;;14.37;66.87;98027.13;5012153;28;20577;-49
2022/04/25 11:33:10;;;;;;;4.30;2.80;;;;;;;14.37;63.67;98035.00;5012039;28;20287;-49
2022/04/25 11:35:37;;;;;;;4.10;3.50;;;;;;;14.41;68.56;98031.78;5011926;28;20204;-49
2022/04/25 11:38:04;;;;;;;3.30;2.93;;;;;;;14.52;62.87;98025.22;4994782;28;20185;-49
2022/04/25 11:40:31;;;;;;;3.90;3.30;;;;;;;14.41;66.15;98031.00;4993969;28;20198;-49
2022/04/25 11:42:59;;;;;;;5.50;3.20;;;;;;;14.57;66.13;98033.34;5013705;28;20705;-48
2022/04/25 11:45:28;;;;;;;4.17;3.40;;;;;;;14.35;64.32;98027.28;5016183;28;20600;-49
2022/04/25 11:47:59;;;;;;;3.47;2.93;;;;;;;14.14;68.56;98028.13;5016143;28;20593;-49
2022/04/25 11:50:26;;;;;;;3.20;2.77;;;;;;;14.22;67.84;98025.38;5010563;28;20284;-48
2022/04/25 11:52:55;;;;;;;3.50;3.20;;;;;;;14.37;67.42;98019.25;5020663;28;20188;-48
2022/04/25 11:55:32;;;;;;;4.43;2.63;;;;;;;14.56;70.58;98023.84;5033620;28;20294;-48
2022/04/25 11:57:59;;;;;;;2.97;2.67;;;;;;;14.43;64.25;98019.28;5035734;28;20218;-49
2022/04/25 12:00:26;;;;;;;2.60;2.40;;;;;;;14.61;64.44;98018.81;5035268;28;20190;-49
2022/04/25 12:02:53;;;;;;;2.77;2.20;;;;;;;14.89;66.46;98015.34;5035351;28;20604;-48
2022/04/25 12:05:28;;;;;;;3.00;2.70;;;;;;;14.46;68.95;98008.41;5035649;28;20739;-48
2022/04/25 12:16:08;;;;;;;3.50;2.63;;;;;;;14.79;67.75;98009.66;5021777;28;20681;-48